Time;durP1;ratioP1;P1;durP2;ratioP2;P2;SDS_P1;SDS_P2;PMS_P1;PMS_P2;Temp;Humidity;BMP_temperature;BMP_pressure;BME280_temperature;BME280_humidity;BME280_pressure;Samples;Min_cycle;Max_cycle;Signal;HPM_P1;HPM_P2
2023/01/06 00:01:17;;;;;;;7.93;2.22;;;;;;;9.95;100.00;100882.38;5051601;28;20028;-63
2023/01/06 00:03:43;;;;;;;8.60;2.10;;;;;;;9.95;100.00;100885.00;5051520;28;20036;-63
2023/01/06 00:06:10;;;;;;;3.22;1.73;;;;;;;9.99;100.00;100879.56;5052810;28;20021;-63
2023/01/06 00:08:36;;;;;;;6.30;2.45;;;;;;;9.97;100.00;100870.88;5055192;28;20025;-63
2023/01/06 00:11:06;;;;;;;5.00;2.53;;;;;;;9.99;100.00;100874.31;5054765;28;20029;-63
2023/01/06 00:13:32;;;;;;;7.53;2.53;;;;;;;9.99;100.00;100857.72;5054513;28;20112;-63
2023/01/06 00:15:57;;;;;;;4.75;1.90;;;;;;;10.03;100.00;100864.56;5055420;28;20160;-63
2023/01/06 00:18:22;;;;;;;4.30;2.08;;;;;;;10.01;100.00;100861.13;5055188;28;20073;-63
2023/01/06 00:20:48;;;;;;;6.40;2.42;;;;;;;10.02;100.00;100858.44;5055575;28;20067;-63
2023/01/06 00:23:14;;;;;;;8.52;2.50;;;;;;;10.00;100.00;100849.78;5054518;28;20094;-63
2023/01/06 00:25:39;;;;;;;8.23;2.38;;;;;;;10.01;100.00;100850.63;5055211;28;20036;-63
2023/01/06 00:28:04;;;;;;;4.07;1.95;;;;;;;9.98;100.00;100851.59;5034443;28;20056;-63
2023/01/06 00:30:30;;;;;;;4.47;2.05;;;;;;;9.76;100.00;100816.66;5054900;28;20099;-63
2023/01/06 00:32:55;;;;;;;5.75;2.15;;;;;;;9.93;100.00;100843.06;5053973;28;20032;-63
2023/01/06 00:35:21;;;;;;;6.47;2.50;;;;;;;9.90;100.00;100845.78;5055196;28;20060;-63
2023/01/06 00:37:46;;;;;;;5.88;2.22;;;;;;;9.93;100.00;100848.31;5054205;28;20467;-63
2023/01/06 00:40:11;;;;;;;3.90;1.60;;;;;;;9.91;100.00;100839.63;5037088;28;20163;-62
2023/01/06 00:42:37;;;;;;;5.63;2.40;;;;;;;9.91;100.00;100844.88;5053777;28;20488;-63
2023/01/06 00:45:02;;;;;;;3.45;1.52;;;;;;;9.95;100.00;100840.38;5054512;28;20040;-63
2023/01/06 00:47:28;;;;;;;6.03;1.92;;;;;;;9.97;100.00;100849.88;5054539;28;20036;-63
2023/01/06 00:49:53;;;;;;;3.85;1.58;;;;;;;9.95;100.00;100833.34;5054743;28;20031;-62
2023/01/06 00:52:19;;;;;;;6.50;1.88;;;;;;;9.95;100.00;100835.97;5054323;28;20029;-62
2023/01/06 00:54:44;;;;;;;5.97;1.90;;;;;;;10.00;100.00;100839.28;5036181;28;20063;-62
2023/01/06 00:57:09;;;;;;;6.10;2.00;;;;;;;9.97;100.00;100834.13;5053883;28;20028;-63
2023/01/06 00:59:35;;;;;;;3.25;1.55;;;;;;;10.00;100.00;100828.78;5038257;28;20033;-62
2023/01/06 01:02:01;;;;;;;5.03;2.25;;;;;;;10.00;100.00;100834.03;5050667;28;20067;-63
2023/01/06 01:04:26;;;;;;;3.97;1.67;;;;;;;9.91;100.00;100826.50;5054300;28;20071;-63
2023/01/06 01:06:52;;;;;;;4.47;1.65;;;;;;;9.60;100.00;100765.69;5053062;28;20021;-63
2023/01/06 01:09:20;;;;;;;4.53;1.83;;;;;;;9.97;100.00;100839.38;5053548;28;20027;-62
2023/01/06 01:14:30;;;;;;;6.55;2.38;;;;;;;9.87;100.00;100819.69;5051700;28;20071;-62
2023/01/06 01:16:56;;;;;;;6.60;1.85;;;;;;;9.89;100.00;100836.25;5052452;28;20480;-62
2023/01/06 01:19:22;;;;;;;3.25;1.48;;;;;;;9.84;100.00;100827.69;5054116;28;20063;-63
2023/01/06 01:21:48;;;;;;;5.28;1.52;;;;;;;9.99;100.00;100837.56;5051924;28;20021;-62
2023/01/06 01:24:13;;;;;;;4.70;1.63;;;;;;;10.01;100.00;100840.97;5034833;28;20357;-63
2023/01/06 01:26:39;;;;;;;4.55;1.70;;;;;;;9.97;100.00;100835.94;5053576;28;20467;-63
2023/01/06 01:29:04;;;;;;;3.50;1.17;;;;;;;10.02;100.00;100832.19;5053435;28;20471;-63
2023/01/06 01:31:30;;;;;;;6.43;1.55;;;;;;;10.02;100.00;100833.97;5053569;28;20036;-63
2023/01/06 01:33:55;;;;;;;6.28;1.60;;;;;;;9.78;100.00;100804.31;5052933;28;20075;-62
2023/01/06 01:36:21;;;;;;;4.57;1.85;;;;;;;9.99;100.00;100824.44;5035641;28;20076;-62
2023/01/06 01:38:46;;;;;;;15.98;1.52;;;;;;;10.03;100.00;100822.56;5053579;28;20523;-62
2023/01/06 01:41:13;;;;;;;4.45;1.60;;;;;;;10.05;100.00;100832.06;5050049;28;20030;-63
2023/01/06 01:43:47;;;;;;;4.35;1.63;;;;;;;10.08;100.00;100821.44;5052417;28;20031;-62
2023/01/06 01:46:16;;;;;;;7.90;1.60;;;;;;;10.07;100.00;100822.34;5053649;28;20036;-63
2023/01/06 01:48:42;;;;;;;4.93;1.83;;;;;;;10.06;100.00;100815.41;5035328;28;20673;-62
2023/01/06 01:51:11;;;;;;;3.42;1.40;;;;;;;10.11;100.00;100823.94;5053601;28;20025;-62
2023/01/06 01:53:48;;;;;;;2.90;1.20;;;;;;;10.08;100.00;100820.56;5030638;28;20115;-62
2023/01/06 01:56:17;;;;;;;2.03;1.17;;;;;;;10.12;100.00;100822.16;5035856;28;20479;-62
2023/01/06 01:59:04;;;;;;;10.48;1.88;;;;;;;10.10;100.00;100813.50;5035110;28;20051;-62
2023/01/06 02:01:30;;;;;;;6.20;1.77;;;;;;;10.16;100.00;100822.00;5049990;28;20041;-62
2023/01/06 02:03:55;;;;;;;3.90;1.40;;;;;;;10.19;100.00;100819.25;5053146;28;20522;-62
2023/01/06 02:06:23;;;;;;;3.28;1.38;;;;;;;10.18;100.00;100812.28;5053174;28;20025;-62
2023/01/06 02:08:59;;;;;;;5.22;1.35;;;;;;;10.21;100.00;100806.03;5052410;28;20078;-62
2023/01/06 02:11:26;;;;;;;3.60;1.27;;;;;;;10.20;100.00;100815.72;5051963;28;20086;-62
2023/01/06 02:14:00;;;;;;;5.88;1.40;;;;;;;10.18;100.00;100817.53;5035283;28;20115;-63
2023/01/06 02:17:03;;;;;;;5.15;1.42;;;;;;;10.22;100.00;100806.00;5035077;28;20025;-62
2023/01/06 02:19:50;;;;;;;3.55;1.20;;;;;;;10.20;100.00;100799.09;5052969;28;20029;-62
2023/01/06 02:22:47;;;;;;;3.40;1.30;;;;;;;10.17;100.00;100802.69;5053260;28;20036;-62
2023/01/06 02:25:27;;;;;;;3.28;1.50;;;;;;;10.17;100.00;100800.06;5035614;28;20111;-62
2023/01/06 02:28:08;;;;;;;5.55;1.65;;;;;;;10.12;100.00;100781.00;5052811;28;20039;-62
2023/01/06 02:30:44;;;;;;;5.47;2.00;;;;;;;10.10;100.00;100776.75;5034738;28;20025;-62
2023/01/06 02:33:26;;;;;;;4.57;1.30;;;;;;;10.02;100.00;100769.19;5034428;28;20078;-62
2023/01/06 02:36:10;;;;;;;3.97;1.50;;;;;;;10.01;100.00;100772.72;5052835;28;20041;-62
2023/01/06 02:38:59;;;;;;;3.08;1.20;;;;;;;9.88;100.00;100749.66;5040344;28;20372;-63
2023/01/06 02:41:32;;;;;;;4.85;1.27;;;;;;;10.01;100.00;100777.97;5052128;28;20028;-62
2023/01/06 02:44:16;;;;;;;4.78;1.52;;;;;;;9.98;100.00;100778.09;5034923;28;20037;-62
2023/01/06 02:46:54;;;;;;;6.38;1.63;;;;;;;9.97;100.00;100773.75;5052660;28;20037;-62
2023/01/06 02:49:38;;;;;;;5.65;1.77;;;;;;;9.96;100.00;100768.59;5052566;28;20392;-62
2023/01/06 02:52:21;;;;;;;5.50;1.53;;;;;;;9.95;100.00;100772.13;5052085;28;20463;-62
2023/01/06 02:55:06;;;;;;;4.20;1.55;;;;;;;9.97;100.00;100775.56;5052474;28;20033;-62
2023/01/06 02:57:44;;;;;;;6.85;1.77;;;;;;;9.95;100.00;100757.22;5040093;28;20024;-63
2023/01/06 03:00:15;;;;;;;5.47;1.52;;;;;;;9.94;100.00;100750.25;5052890;28;20055;-62
2023/01/06 03:02:44;;;;;;;12.88;1.83;;;;;;;9.92;100.00;100752.13;5034536;28;20175;-62
2023/01/06 03:05:12;;;;;;;4.15;1.52;;;;;;;9.97;100.00;100754.56;5033816;28;20021;-62
2023/01/06 03:07:38;;;;;;;4.82;1.80;;;;;;;9.97;100.00;100736.19;5034101;28;20033;-62
2023/01/06 03:10:04;;;;;;;3.80;1.63;;;;;;;10.02;100.00;100737.69;5051186;28;20379;-62
2023/01/06 03:12:40;;;;;;;5.15;1.30;;;;;;;10.01;100.00;100740.34;5024496;28;20048;-62
2023/01/06 03:15:06;;;;;;;6.32;1.58;;;;;;;10.04;100.00;100746.34;5034261;28;20066;-63
2023/01/06 03:17:31;;;;;;;4.50;1.60;;;;;;;10.00;100.00;100718.53;5034088;28;20059;-62
2023/01/06 03:19:57;;;;;;;3.75;1.27;;;;;;;9.94;100.00;100721.38;5029730;28;20464;-62
2023/01/06 03:22:23;;;;;;;7.40;1.67;;;;;;;9.83;100.00;100699.16;5051825;28;20029;-62
2023/01/06 03:24:48;;;;;;;3.90;1.02;;;;;;;9.98;100.00;100720.34;5052319;28;20037;-62
2023/01/06 03:27:16;;;;;;;3.70;1.42;;;;;;;10.09;100.00;100749.63;5052068;28;20052;-62
2023/01/06 03:29:42;;;;;;;3.17;1.40;;;;;;;10.07;100.00;100735.69;5051919;28;20450;-62
2023/01/06 03:32:27;;;;;;;2.72;1.15;;;;;;;10.08;100.00;100739.19;5033547;28;20108;-62
2023/01/06 03:35:04;;;;;;;4.93;1.75;;;;;;;10.07;100.00;100746.19;5051516;28;20024;-62
2023/01/06 03:37:52;;;;;;;4.90;1.30;;;;;;;10.04;100.00;100743.72;5052264;28;20119;-62
2023/01/06 03:40:31;;;;;;;7.68;1.60;;;;;;;10.06;100.00;100734.00;5035119;28;20025;-62
2023/01/06 03:43:11;;;;;;;6.63;1.42;;;;;;;10.09;100.00;100739.13;5053170;28;20175;-62
2023/01/06 03:46:04;;;;;;;6.22;1.52;;;;;;;10.09;100.00;100733.88;5056118;28;20028;-62
2023/01/06 03:48:48;;;;;;;5.00;1.27;;;;;;;10.09;100.00;100739.13;5055096;28;20040;-62
2023/01/06 03:51:16;;;;;;;10.45;2.55;;;;;;;10.09;100.00;100731.25;5056420;28;20376;-61
2023/01/06 03:53:49;;;;;;;4.32;1.45;;;;;;;10.10;100.00;100732.97;5055641;28;20029;-61
2023/01/06 03:56:34;;;;;;;5.00;1.35;;;;;;;10.09;100.00;100715.50;5055715;28;20044;-61
2023/01/06 03:59:05;;;;;;;5.53;1.83;;;;;;;10.08;100.00;100731.31;5033313;28;20020;-61
2023/01/06 04:01:31;;;;;;;10.18;1.95;;;;;;;10.04;100.00;100724.47;5037519;28;20068;-61
2023/01/06 04:03:57;;;;;;;4.75;1.50;;;;;;;9.98;100.00;100722.13;5055385;28;20057;-61
2023/01/06 04:06:23;;;;;;;5.90;1.98;;;;;;;9.96;100.00;100710.84;5055339;28;20051;-61
2023/01/06 04:08:48;;;;;;;4.18;1.30;;;;;;;9.99;100.00;100719.44;5055405;28;20028;-61
2023/01/06 04:13:59;;;;;;;5.40;1.50;;;;;;;9.96;100.00;100718.72;5055866;28;20060;-62
2023/01/06 04:16:24;;;;;;;5.85;1.63;;;;;;;9.94;100.00;100720.53;5055128;28;20155;-61
2023/01/06 04:18:50;;;;;;;5.88;1.80;;;;;;;9.95;100.00;100698.63;5036920;28;20029;-61
2023/01/06 04:21:15;;;;;;;3.75;1.85;;;;;;;9.95;100.00;100709.13;5055191;28;20094;-61
2023/01/06 04:23:41;;;;;;;4.43;1.88;;;;;;;9.82;100.00;100700.94;5046208;28;20053;-62
2023/01/06 04:26:06;;;;;;;5.75;1.70;;;;;;;9.94;100.00;100725.78;5051356;28;20475;-62
2023/01/06 04:28:31;;;;;;;5.85;1.50;;;;;;;9.78;100.00;100680.97;5055334;28;20060;-62
2023/01/06 04:30:57;;;;;;;5.75;1.88;;;;;;;9.92;100.00;100704.00;5055126;28;20032;-62
2023/01/06 04:33:23;;;;;;;4.70;1.75;;;;;;;9.88;100.00;100695.41;5055373;28;20033;-61
2023/01/06 04:35:48;;;;;;;2.75;1.30;;;;;;;9.90;100.00;100683.06;5055159;28;20379;-62
2023/01/06 04:38:14;;;;;;;6.00;2.13;;;;;;;9.92;100.00;100676.00;5054560;28;20058;-62
2023/01/06 04:40:41;;;;;;;6.32;1.70;;;;;;;9.88;100.00;100690.16;5046412;28;20865;-62
2023/01/06 04:43:06;;;;;;;3.40;1.33;;;;;;;9.92;100.00;100689.13;5036135;28;20105;-62
2023/01/06 04:45:33;;;;;;;3.97;1.73;;;;;;;9.90;100.00;100672.56;5054534;28;20029;-62
2023/01/06 04:47:58;;;;;;;5.40;1.67;;;;;;;9.94;100.00;100689.91;5054596;28;20029;-62
2023/01/06 04:50:24;;;;;;;3.47;1.50;;;;;;;9.92;100.00;100678.63;5054366;28;20055;-62
2023/01/06 04:52:49;;;;;;;4.68;1.70;;;;;;;9.88;100.00;100674.41;5053542;28;20028;-61
2023/01/06 04:55:15;;;;;;;3.10;1.50;;;;;;;9.88;100.00;100674.41;5054717;28;20033;-61
2023/01/06 04:57:41;;;;;;;4.88;1.63;;;;;;;9.94;100.00;100684.66;5054419;28;20431;-61
2023/01/06 05:00:06;;;;;;;6.30;1.45;;;;;;;9.93;100.00;100690.84;5054423;28;20040;-61
2023/01/06 05:02:32;;;;;;;3.35;1.10;;;;;;;9.92;100.00;100689.13;5054667;28;20093;-61
2023/01/06 05:04:57;;;;;;;6.57;1.90;;;;;;;9.90;100.00;100684.88;5054289;28;20468;-61
2023/01/06 05:07:23;;;;;;;6.00;1.30;;;;;;;9.92;100.00;100681.25;5054099;28;20128;-62
2023/01/06 05:09:48;;;;;;;4.00;1.30;;;;;;;9.90;100.00;100674.38;5054655;28;20029;-62
2023/01/06 05:12:14;;;;;;;6.82;1.58;;;;;;;9.85;100.00;100665.81;5054315;28;20025;-61
2023/01/06 05:14:39;;;;;;;3.88;1.20;;;;;;;9.84;100.00;100664.97;5054419;28;20055;-62
2023/01/06 05:17:04;;;;;;;4.65;1.77;;;;;;;9.82;100.00;100656.31;5053563;28;20052;-62
2023/01/06 05:19:30;;;;;;;7.90;1.48;;;;;;;9.81;100.00;100651.97;5053772;28;20029;-62
2023/01/06 05:21:55;;;;;;;2.70;1.23;;;;;;;9.77;100.00;100641.69;5054327;28;20475;-63
2023/01/06 05:24:20;;;;;;;4.50;1.48;;;;;;;9.78;100.00;100644.22;5053973;28;20114;-62
2023/01/06 05:26:46;;;;;;;3.00;1.23;;;;;;;9.77;100.00;100647.78;5054370;28;20482;-62
2023/01/06 05:29:13;;;;;;;4.28;1.52;;;;;;;9.79;100.00;100640.69;5053930;28;20032;-62
2023/01/06 05:31:39;;;;;;;5.30;1.30;;;;;;;9.76;100.00;100635.59;5035828;28;20383;-62
2023/01/06 05:34:04;;;;;;;7.75;1.92;;;;;;;9.78;100.00;100636.38;5053879;28;20036;-62
2023/01/06 05:36:29;;;;;;;4.03;1.23;;;;;;;9.71;100.00;100627.03;5053874;28;20130;-62
2023/01/06 05:38:55;;;;;;;3.60;1.17;;;;;;;9.77;100.00;100640.75;5034268;28;20924;-62
2023/01/06 05:41:20;;;;;;;4.07;1.70;;;;;;;9.73;100.00;100635.72;5053801;28;20198;-62
2023/01/06 05:43:46;;;;;;;3.60;1.33;;;;;;;9.78;100.00;100644.22;5053749;28;20029;-62
2023/01/06 05:46:11;;;;;;;3.72;1.13;;;;;;;9.82;100.00;100645.81;5053244;28;20356;-62
2023/01/06 05:48:37;;;;;;;2.90;0.75;;;;;;;9.76;100.00;100643.47;5053089;28;20029;-62
2023/01/06 05:51:04;;;;;;;2.55;0.80;;;;;;;9.77;100.00;100642.53;5037270;28;20179;-63
2023/01/06 05:53:35;;;;;;;2.75;1.10;;;;;;;9.75;100.00;100644.38;5046147;28;20044;-62
2023/01/06 05:56:01;;;;;;;3.40;1.20;;;;;;;9.77;100.00;100644.31;5053998;28;20467;-62
2023/01/06 05:58:27;;;;;;;2.85;1.00;;;;;;;9.75;100.00;100647.00;5053136;28;20070;-62
2023/01/06 06:00:52;;;;;;;4.78;1.52;;;;;;;9.69;100.00;100636.75;5052879;28;20024;-62
2023/01/06 06:03:17;;;;;;;2.08;0.93;;;;;;;9.70;100.00;100641.94;5052996;28;20037;-62
2023/01/06 06:05:43;;;;;;;3.33;1.35;;;;;;;9.69;100.00;100649.88;5053381;28;20028;-62
2023/01/06 06:08:08;;;;;;;2.72;1.20;;;;;;;9.67;100.00;100638.59;5053096;28;20115;-61
2023/01/06 06:10:34;;;;;;;7.28;1.08;;;;;;;9.61;100.00;100629.22;5053155;28;20032;-61
2023/01/06 06:12:59;;;;;;;2.47;0.75;;;;;;;9.71;100.00;100643.66;5052633;28;20055;-62
2023/01/06 06:15:24;;;;;;;1.98;0.90;;;;;;;9.72;100.00;100637.50;5040891;28;20075;-62
2023/01/06 06:17:50;;;;;;;4.35;1.20;;;;;;;9.79;100.00;100666.94;5050413;28;20037;-62
2023/01/06 06:20:15;;;;;;;6.85;1.35;;;;;;;9.79;100.00;100659.06;5052973;28;20471;-63
2023/01/06 06:22:41;;;;;;;4.60;1.38;;;;;;;9.82;100.00;100669.44;5052441;28;20115;-62
2023/01/06 06:25:06;;;;;;;5.05;1.10;;;;;;;9.82;100.00;100666.81;5035173;28;20025;-62
2023/01/06 06:27:32;;;;;;;4.30;1.08;;;;;;;9.65;100.00;100637.81;5052681;28;20068;-62
2023/01/06 06:29:57;;;;;;;2.53;0.90;;;;;;;9.68;100.00;100669.16;5053078;28;20020;-61
2023/01/06 06:32:22;;;;;;;3.40;1.02;;;;;;;9.37;100.00;100617.13;5051857;28;20025;-62
2023/01/06 06:34:48;;;;;;;2.20;0.90;;;;;;;9.58;100.00;100668.69;5052791;28;20032;-62
2023/01/06 06:37:13;;;;;;;2.03;0.90;;;;;;;9.60;100.00;100650.25;5052521;28;20164;-61
2023/01/06 06:39:39;;;;;;;5.85;1.30;;;;;;;9.67;100.00;100656.94;5053038;28;20029;-62
2023/01/06 06:42:04;;;;;;;3.20;1.50;;;;;;;9.73;100.00;100656.72;5052044;28;20418;-62
2023/01/06 06:44:30;;;;;;;3.15;0.80;;;;;;;9.74;100.00;100654.00;5047176;28;20033;-62
2023/01/06 06:46:55;;;;;;;2.78;1.20;;;;;;;9.77;100.00;100650.38;5052402;28;20115;-62
2023/01/06 06:49:20;;;;;;;2.15;0.93;;;;;;;9.83;100.00;100644.91;5034758;28;20166;-61
2023/01/06 06:51:46;;;;;;;1.75;0.85;;;;;;;9.67;100.00;100617.59;5052453;28;20118;-62
2023/01/06 06:54:12;;;;;;;3.58;1.08;;;;;;;9.86;100.00;100634.28;5052710;28;20028;-61
2023/01/06 06:56:38;;;;;;;4.47;1.15;;;;;;;9.88;100.00;100656.03;5052648;28;20025;-62
2023/01/06 06:59:03;;;;;;;2.60;1.02;;;;;;;9.92;100.00;100659.38;5034095;28;20025;-61
2023/01/06 07:01:30;;;;;;;2.03;0.90;;;;;;;9.98;100.00;100659.97;5052187;28;20024;-61
2023/01/06 07:03:56;;;;;;;1.42;0.73;;;;;;;9.71;100.00;100600.81;5041389;28;20476;-62
2023/01/06 07:06:23;;;;;;;2.28;0.93;;;;;;;9.95;100.00;100641.75;5046102;28;20052;-62
2023/01/06 07:08:49;;;;;;;4.15;1.10;;;;;;;9.81;100.00;100632.75;5034297;28;20017;-61
2023/01/06 07:11:14;;;;;;;1.95;0.80;;;;;;;9.97;100.00;100655.63;5052149;28;20029;-61
2023/01/06 07:13:40;;;;;;;3.40;1.13;;;;;;;10.02;100.00;100661.56;5049927;28;20027;-62
2023/01/06 07:16:05;;;;;;;6.45;1.10;;;;;;;9.95;100.00;100657.47;5050728;28;20040;-62
2023/01/06 07:18:31;;;;;;;1.92;1.00;;;;;;;9.90;100.00;100664.69;5052364;28;20064;-62
2023/01/06 07:20:56;;;;;;;1.42;0.77;;;;;;;9.85;100.00;100668.44;5052054;28;20017;-61
2023/01/06 07:23:23;;;;;;;2.40;1.00;;;;;;;9.90;100.00;100669.13;5051817;28;20033;-62
2023/01/06 07:25:56;;;;;;;3.30;0.73;;;;;;;9.82;100.00;100666.81;5044893;28;20048;-61
2023/01/06 07:28:22;;;;;;;1.45;0.68;;;;;;;9.71;100.00;100674.28;5051636;28;20542;-61
2023/01/06 07:30:47;;;;;;;2.00;1.10;;;;;;;9.54;100.00;100666.25;5051764;28;20032;-62
2023/01/06 07:33:13;;;;;;;2.80;0.98;;;;;;;9.52;100.00;100687.31;5052468;28;20025;-62
2023/01/06 07:35:38;;;;;;;1.77;0.75;;;;;;;9.44;100.00;100678.91;5051727;28;20029;-62
2023/01/06 07:38:05;;;;;;;3.53;1.30;;;;;;;9.33;100.00;100672.41;5052033;28;20107;-62
2023/01/06 07:40:30;;;;;;;5.57;1.45;;;;;;;9.34;100.00;100663.59;5051715;28;20033;-62
2023/01/06 07:42:56;;;;;;;2.15;0.90;;;;;;;9.28;100.00;100663.84;5051023;28;20120;-62
2023/01/06 07:45:21;;;;;;;1.95;0.88;;;;;;;9.27;100.00;100667.38;5049729;28;20037;-62
2023/01/06 07:47:46;;;;;;;2.40;1.10;;;;;;;9.24;100.00;100648.25;5050524;28;20021;-61
2023/01/06 07:50:12;;;;;;;2.00;0.98;;;;;;;9.38;100.00;100670.44;5050266;28;20056;-62
2023/01/06 07:52:37;;;;;;;2.58;0.85;;;;;;;9.36;100.00;100672.28;5051020;28;20486;-61
2023/01/06 07:55:03;;;;;;;2.65;0.77;;;;;;;9.42;100.00;100687.75;5051343;28;20025;-62
2023/01/06 07:57:29;;;;;;;1.95;0.70;;;;;;;9.47;100.00;100677.91;5051614;28;20442;-61
2023/01/06 07:59:54;;;;;;;3.33;0.93;;;;;;;9.49;100.00;100687.44;5051674;28;20055;-62
2023/01/06 08:02:20;;;;;;;4.57;1.15;;;;;;;9.37;100.00;100674.81;5050556;28;20021;-62
2023/01/06 08:04:46;;;;;;;9.20;1.08;;;;;;;9.50;100.00;100693.53;5051303;28;20032;-61
2023/01/06 08:07:13;;;;;;;4.10;1.35;;;;;;;9.48;100.00;100698.84;5051226;28;20041;-61
2023/01/06 08:09:38;;;;;;;1.88;0.93;;;;;;;9.41;100.00;100699.16;5051344;28;20460;-61
2023/01/06 08:12:04;;;;;;;3.63;1.15;;;;;;;9.29;100.00;100690.03;5051082;28;20021;-61
2023/01/06 08:14:29;;;;;;;3.13;1.25;;;;;;;9.37;100.00;100702.81;5050145;28;20055;-61
2023/01/06 08:16:54;;;;;;;7.25;1.52;;;;;;;9.38;100.00;100709.78;5051501;28;20485;-61
2023/01/06 08:19:20;;;;;;;2.78;1.20;;;;;;;9.39;100.00;100719.34;5050988;28;20076;-61
2023/01/06 08:21:45;;;;;;;8.73;1.20;;;;;;;9.37;100.00;100721.16;5051154;28;20025;-62
2023/01/06 08:24:10;;;;;;;2.78;1.10;;;;;;;9.32;100.00;100720.50;5050853;28;20036;-61
2023/01/06 08:26:36;;;;;;;2.40;1.25;;;;;;;9.31;100.00;100721.41;5052401;28;20032;-62
2023/01/06 08:29:02;;;;;;;2.03;0.95;;;;;;;9.28;100.00;100718.91;5053352;28;20052;-62
2023/01/06 08:31:27;;;;;;;8.25;1.23;;;;;;;9.23;100.00;100713.84;5053994;28;20108;-61
2023/01/06 08:33:53;;;;;;;4.07;1.38;;;;;;;9.13;100.00;100702.88;5028020;28;20471;-62
2023/01/06 08:36:21;;;;;;;3.58;1.35;;;;;;;9.00;100.00;100674.59;5054965;28;20075;-62
2023/01/06 08:38:47;;;;;;;4.25;0.95;;;;;;;9.27;100.00;100719.81;5054293;28;20024;-62
2023/01/06 08:41:13;;;;;;;5.35;1.35;;;;;;;9.26;100.00;100723.38;5035340;28;20021;-61
2023/01/06 08:43:40;;;;;;;3.33;1.05;;;;;;;9.29;100.00;100731.13;5054846;28;20032;-62
2023/01/06 08:46:07;;;;;;;2.15;1.00;;;;;;;9.27;100.00;100733.78;5036628;28;20468;-62
2023/01/06 08:48:34;;;;;;;3.08;1.48;;;;;;;9.28;100.00;100732.03;5054353;28;20033;-63
2023/01/06 08:51:04;;;;;;;5.10;2.28;;;;;;;9.07;100.00;100690.00;5046633;28;20029;-63
2023/01/06 08:53:30;;;;;;;8.10;2.25;;;;;;;9.27;100.00;100719.81;5054412;28;20419;-62
2023/01/06 08:55:56;;;;;;;5.18;2.40;;;;;;;9.27;100.00;100738.19;5052764;28;20586;-62
2023/01/06 08:58:21;;;;;;;3.90;2.15;;;;;;;9.22;100.00;100718.25;5053284;28;20112;-62
2023/01/06 09:00:46;;;;;;;4.63;2.13;;;;;;;9.30;100.00;100740.69;5053307;28;20029;-63
2023/01/06 09:03:12;;;;;;;4.60;2.28;;;;;;;9.32;100.00;100738.88;5050634;28;20037;-63
2023/01/06 09:05:37;;;;;;;5.65;2.33;;;;;;;9.24;100.00;100740.00;5053729;28;20032;-62
2023/01/06 09:08:03;;;;;;;3.65;1.73;;;;;;;9.32;100.00;100758.09;5053457;28;20051;-63
2023/01/06 09:10:28;;;;;;;2.42;1.45;;;;;;;9.36;100.00;100766.69;5052299;28;20684;-63
2023/01/06 09:12:54;;;;;;;2.90;1.33;;;;;;;9.41;100.00;100769.97;5035449;28;20029;-63
2023/01/06 09:15:19;;;;;;;5.65;1.45;;;;;;;9.44;100.00;100764.59;5052916;28;20029;-63
2023/01/06 09:17:44;;;;;;;2.55;1.48;;;;;;;9.47;100.00;100778.44;5053437;28;20028;-63
2023/01/06 09:20:10;;;;;;;6.90;1.92;;;;;;;9.41;100.00;100762.09;5054052;28;20537;-63
2023/01/06 09:22:35;;;;;;;3.00;1.52;;;;;;;9.48;100.00;100782.78;5053149;28;20075;-63
2023/01/06 09:25:01;;;;;;;2.75;1.33;;;;;;;9.46;100.00;100773.28;5053933;28;20033;-63
2023/01/06 09:27:27;;;;;;;3.17;1.60;;;;;;;9.41;100.00;100749.84;5053851;28;20087;-63
2023/01/06 09:29:52;;;;;;;1.70;0.82;;;;;;;9.20;100.00;100729.69;5052706;28;20072;-62
2023/01/06 09:32:18;;;;;;;2.97;1.20;;;;;;;9.56;100.00;100782.47;5053500;28;20334;-62
2023/01/06 09:34:43;;;;;;;2.20;1.15;;;;;;;9.60;100.00;100776.19;5053913;28;20064;-62
2023/01/06 09:37:09;;;;;;;2.17;1.00;;;;;;;9.59;100.00;100771.88;5052561;28;20021;-62
2023/01/06 09:39:36;;;;;;;2.47;0.82;;;;;;;9.39;100.00;100748.19;5050715;28;20033;-62
2023/01/06 09:42:29;;;;;;;2.40;1.08;;;;;;;9.66;100.00;100779.44;5053232;28;20041;-62
2023/01/06 09:44:57;;;;;;;1.85;1.00;;;;;;;9.73;100.00;100795.78;5044570;28;20090;-62
2023/01/06 09:47:35;;;;;;;4.38;1.52;;;;;;;9.74;100.00;100789.59;5034959;28;20502;-62
2023/01/06 09:50:31;;;;;;;3.20;1.23;;;;;;;9.79;100.00;100800.78;5034884;28;20060;-62
2023/01/06 09:53:01;;;;;;;3.45;1.30;;;;;;;9.83;100.00;100801.50;5036963;28;20029;-61
2023/01/06 09:55:34;;;;;;;4.40;1.42;;;;;;;9.88;100.00;100802.16;5048252;28;20045;-61
2023/01/06 09:58:07;;;;;;;2.83;1.42;;;;;;;9.86;100.00;100778.63;5055613;28;20542;-62
2023/01/06 10:00:40;;;;;;;2.65;1.35;;;;;;;9.93;100.00;100793.19;5035317;28;20471;-61
2023/01/06 10:03:12;;;;;;;2.13;1.00;;;;;;;9.96;100.00;100795.69;5035717;28;20033;-61
2023/01/06 10:06:06;;;;;;;3.75;1.25;;;;;;;9.99;100.00;100808.69;5047143;28;20032;-62
2023/01/06 10:08:50;;;;;;;3.53;1.25;;;;;;;10.01;100.00;100809.47;5051862;28;20036;-62
2023/01/06 10:11:26;;;;;;;2.78;1.25;;;;;;;10.05;100.00;100815.44;5040826;28;20059;-62
2023/01/06 10:14:17;;;;;;;2.13;0.70;;;;;;;10.07;100.00;100819.72;5053960;28;20040;-61
2023/01/06 10:16:58;;;;;;;3.45;1.20;;;;;;;10.11;100.00;100816.06;5045255;28;20033;-61
2023/01/06 10:19:47;;;;;;;1.95;0.90;;;;;;;10.08;100.00;100820.56;5052423;28;20051;-62
2023/01/06 10:22:15;;;;;;;2.75;1.20;;;;;;;10.13;100.00;100822.09;5051009;28;20041;-62
2023/01/06 10:24:44;;;;;;;3.30;1.30;;;;;;;10.10;100.00;100824.88;5052366;28;20057;-61
2023/01/06 10:27:19;;;;;;;3.00;1.33;;;;;;;9.99;100.00;100806.06;5052545;28;20480;-62
2023/01/06 10:29:47;;;;;;;1.92;1.02;;;;;;;10.11;100.00;100825.69;5051040;28;20144;-61
2023/01/06 10:32:15;;;;;;;3.10;1.40;;;;;;;10.22;100.00;100827.00;5052063;28;20499;-61
2023/01/06 10:34:41;;;;;;;2.80;1.40;;;;;;;10.11;100.00;100805.56;5034400;28;20109;-62
2023/01/06 10:37:09;;;;;;;3.50;1.42;;;;;;;10.24;100.00;100819.91;5034206;28;20052;-62
2023/01/06 10:39:37;;;;;;;3.33;1.52;;;;;;;10.25;100.00;100811.13;5050774;28;20033;-61
2023/01/06 10:45:06;;;;;;;3.90;1.33;;;;;;;10.27;100.00;100811.88;5051987;28;20506;-61
2023/01/06 10:47:33;;;;;;;4.53;1.83;;;;;;;10.21;100.00;100806.91;5033994;28;20052;-61
2023/01/06 10:49:59;;;;;;;2.70;1.38;;;;;;;10.20;100.00;100804.34;5050855;28;20025;-61
2023/01/06 10:52:25;;;;;;;2.33;1.27;;;;;;;10.19;100.00;100803.50;5030953;28;20021;-60
2023/01/06 10:54:55;;;;;;;2.33;1.27;;;;;;;10.22;100.00;100819.13;5051536;28;20446;-60
2023/01/06 10:57:28;;;;;;;1.80;0.90;;;;;;;10.19;100.00;100807.91;5033853;28;20032;-61
2023/01/06 11:00:06;;;;;;;2.63;1.30;;;;;;;10.18;100.00;100809.66;5034503;28;20033;-61
2023/01/06 11:02:31;;;;;;;2.30;1.33;;;;;;;10.15;100.00;100804.53;5049456;28;20029;-61
2023/01/06 11:05:00;;;;;;;4.00;1.45;;;;;;;10.10;100.00;100795.13;5051817;28;20087;-62
2023/01/06 11:07:25;;;;;;;3.08;1.33;;;;;;;10.10;100.00;100803.88;5052337;28;20051;-63
2023/01/06 11:09:51;;;;;;;2.33;1.30;;;;;;;10.08;100.00;100799.56;5051990;28;20560;-61
2023/01/06 11:12:19;;;;;;;2.83;1.30;;;;;;;10.05;100.00;100799.69;5051714;28;20039;-62
2023/01/06 11:15:05;;;;;;;2.20;1.20;;;;;;;10.01;100.00;100798.97;5049283;28;20055;-62
2023/01/06 11:17:31;;;;;;;6.22;1.63;;;;;;;9.71;100.00;100742.50;5052085;28;20047;-61
2023/01/06 11:20:11;;;;;;;2.88;1.73;;;;;;;10.02;100.00;100798.06;5051543;28;20092;-62
2023/01/06 11:22:38;;;;;;;2.95;1.90;;;;;;;10.00;100.00;100796.44;5043529;28;20025;-62
2023/01/06 11:25:18;;;;;;;2.38;1.50;;;;;;;9.97;100.00;100799.19;5049012;28;20044;-62
2023/01/06 11:27:45;;;;;;;4.13;1.88;;;;;;;9.92;100.00;100788.88;5052174;28;20497;-62
2023/01/06 11:30:21;;;;;;;5.40;2.25;;;;;;;9.97;100.00;100802.63;5034007;28;20028;-62
2023/01/06 11:32:47;;;;;;;3.70;1.98;;;;;;;9.92;100.00;100799.34;5033323;28;20105;-63
2023/01/06 11:35:18;;;;;;;3.67;1.92;;;;;;;9.96;100.00;100806.19;5046348;28;20613;-62
2023/01/06 11:37:44;;;;;;;3.25;2.17;;;;;;;9.93;100.00;100803.69;5034415;28;20029;-62